메인 페이지
METAR-TAF:

METAR-TAF

공항 :

킨샤사, 콩고

위도: 04-23S, 경도: 015-26E, 고도: 309m

현재 날씨관측

예보는 26분 전, 00:00시(UTC)에 발표되었습니다.
10kt
온도 26°C
습도 65%
기압 1011 hPa
시정: 9000m
고도 1800ft 상공 구름 조금

METAR: FZAA 220000Z 27010KT 9000 FEW018 26/19 Q1011 NOSIG

시각: 01:26 (00:26 UTC)

예보

예보는 1 시간 26분 전, 23:00시(UTC)에 발표되었습니다.
예보 대상 시간: 22일 00시부터 23일 06시까지 (UTC)
남남서4kt
시정: 7000m
고도 1800ft 상공 구름 많음
고도 2800ft 상공 구름 조금, 적란운.
일시적
22일 00시부터 22일 07시까지 (UTC)
시정: 4000m
뇌우, 약한비
22일 0900시부터 (UTC)
서북서10kt
시정: 9000m
고도 2400ft 상공 구름 보통
전환 중
22일 12시부터 22일 14시까지 (UTC)
고도 3000ft 상공 구름 조금, 적란운.
일시적
22일 16시부터 22일 19시까지 (UTC)
뇌우

TAF: FZAA 212300Z 2200/2306 20004KT 7000 BKN018 FEW028CB TEMPO 2200/2207 4000 -TSRA FM220900 30010KT 9000 SCT024 BECMG 2212/2214 FEW030CB TEMPO 2216/2219 TS

4,000개 이상의 공항 관측 자료 및 예보 (METAR 및 TAF 보고).

지도상에서 검색 가능한 기상관측소가 노란 점과 빨간 점으로 표시되어 있습니다.

기상관측소 명을 보려면 표시 위로 마우스를 이동하세요.

날씨 관측과 예보를 보려면 클릭하세요.

지도 변경 : 확대하려면 엑스 표시가 있는 녹색 버튼, 축소하려면 빼기 표시가 있는 녹색 버튼, 다음 페이지의 지도를 보려면 녹색 화살표를 클릭하세요.


METAR-TAF: